createdAt,value
2022-07-26T00:04:54.867Z,17.89
2022-07-26T00:10:03.276Z,17.74
2022-07-26T00:15:35.473Z,17.81
2022-07-26T00:21:08.995Z,17.79
2022-07-26T00:26:43.321Z,17.72
2022-07-26T00:32:15.818Z,17.72
2022-07-26T00:38:13.368Z,17.86
2022-07-26T00:43:56.459Z,17.80
2022-07-26T00:49:03.575Z,17.87
2022-07-26T00:54:41.255Z,17.85
2022-07-26T01:00:16.947Z,17.87
2022-07-26T01:05:26.274Z,17.92
2022-07-26T01:11:24.483Z,17.95
2022-07-26T01:16:31.756Z,17.96
2022-07-26T01:21:40.906Z,18.02
2022-07-26T01:26:48.506Z,18.05
2022-07-26T01:31:58.393Z,17.90
2022-07-26T01:37:08.468Z,17.92
2022-07-26T01:42:16.446Z,17.88
2022-07-26T01:47:25.780Z,17.89
2022-07-26T01:52:36.106Z,17.85
2022-07-26T01:57:43.289Z,17.87
2022-07-26T02:02:50.687Z,17.63
2022-07-26T02:08:00.104Z,17.40
2022-07-26T02:13:07.816Z,17.50
2022-07-26T02:18:35.867Z,17.59
2022-07-26T02:24:10.594Z,17.49
2022-07-26T02:29:18.107Z,17.57
2022-07-26T02:34:25.619Z,17.37
2022-07-26T02:39:59.033Z,17.29
2022-07-26T02:45:06.612Z,17.42
2022-07-26T02:50:13.768Z,17.14
2022-07-26T02:55:24.843Z,17.22
2022-07-26T03:00:56.692Z,17.16
2022-07-26T03:06:28.526Z,17.29
2022-07-26T03:11:38.448Z,16.89
2022-07-26T03:16:45.961Z,16.85
2022-07-26T03:21:56.854Z,16.69
2022-07-26T03:27:32.996Z,16.85
2022-07-26T03:32:40.020Z,16.92
2022-07-26T03:37:51.419Z,16.98
2022-07-26T03:43:05.068Z,17.03
2022-07-26T03:48:11.832Z,17.02
2022-07-26T03:53:44.792Z,17.17
2022-07-26T03:59:18.271Z,17.18
2022-07-26T04:05:14.313Z,17.31
2022-07-26T04:10:48.386Z,17.35
2022-07-26T04:16:20.684Z,17.37
2022-07-26T04:21:28.033Z,17.32
2022-07-26T04:26:59.995Z,17.42
2022-07-26T04:32:33.034Z,17.51
2022-07-26T04:38:05.556Z,17.61
2022-07-26T04:43:15.692Z,17.71
2022-07-26T04:48:25.062Z,17.80
2022-07-26T04:53:32.090Z,17.88
2022-07-26T04:59:03.823Z,17.97
2022-07-26T05:05:25.907Z,18.07
2022-07-26T05:10:37.351Z,18.17
2022-07-26T05:16:44.213Z,18.36
2022-07-26T05:22:17.155Z,18.42
2022-07-26T05:27:50.712Z,18.51
2022-07-26T05:32:58.097Z,18.59
2022-07-26T05:38:54.258Z,18.67
2022-07-26T05:44:27.454Z,18.74
2022-07-26T05:50:08.641Z,18.86
2022-07-26T05:55:21.179Z,18.93
2022-07-26T06:00:54.300Z,19.02
2022-07-26T06:06:01.813Z,19.11
2022-07-26T06:11:58.039Z,19.23
2022-07-26T06:17:31.388Z,19.31
2022-07-26T06:23:04.053Z,19.33
2022-07-26T06:28:12.786Z,19.46
2022-07-26T06:33:21.014Z,19.72
2022-07-26T06:38:28.019Z,19.83
2022-07-26T06:44:00.826Z,19.89
2022-07-26T06:49:09.385Z,20.04
2022-07-26T06:54:16.232Z,20.09
2022-07-26T06:59:26.837Z,20.22
2022-07-26T07:05:02.131Z,20.34
2022-07-26T07:10:12.638Z,20.39
2022-07-26T07:15:19.758Z,20.44
2022-07-26T07:20:30.100Z,20.54
2022-07-26T07:26:07.132Z,20.63
2022-07-26T07:31:14.635Z,20.62
2022-07-26T07:36:48.784Z,20.68
2022-07-26T07:41:55.895Z,20.75
2022-07-26T07:47:03.375Z,20.84
2022-07-26T07:52:36.386Z,20.86
2022-07-26T07:58:07.943Z,20.83
2022-07-26T08:03:40.408Z,20.83
2022-07-26T08:08:49.407Z,20.95
2022-07-26T08:14:23.013Z,20.95
2022-07-26T08:19:41.965Z,20.98
2022-07-26T08:24:50.909Z,21.09
2022-07-26T08:29:57.806Z,21.13
2022-07-26T08:35:31.136Z,21.09
2022-07-26T08:40:39.992Z,21.07
2022-07-26T08:45:48.054Z,21.08
2022-07-26T08:50:55.929Z,21.06
2022-07-26T08:56:07.204Z,21.05
2022-07-26T09:01:15.329Z,21.03
2022-07-26T09:06:28.124Z,21.02
2022-07-26T09:11:36.877Z,20.99
2022-07-26T09:17:08.634Z,20.97
2022-07-26T09:22:41.369Z,20.94
2022-07-26T09:28:26.149Z,20.95
2022-07-26T09:33:59.428Z,20.97
2022-07-26T09:39:07.154Z,20.97
2022-07-26T09:44:47.782Z,20.97
2022-07-26T09:50:17.072Z,20.98
2022-07-26T09:55:29.206Z,20.98
2022-07-26T10:00:43.354Z,20.99
2022-07-26T10:05:51.773Z,21.01
2022-07-26T10:11:23.351Z,21.00
2022-07-26T10:16:56.642Z,20.98
2022-07-26T10:22:34.395Z,20.95
2022-07-26T10:28:12.051Z,20.97
2022-07-26T10:33:27.152Z,21.00
2022-07-26T10:39:12.091Z,21.00
2022-07-26T10:44:46.613Z,21.04
2022-07-26T10:50:00.678Z,21.06
2022-07-26T10:56:01.828Z,21.12
2022-07-26T11:01:37.294Z,21.14
2022-07-26T11:06:49.609Z,21.15
2022-07-26T11:11:57.225Z,21.19
2022-07-26T11:17:04.339Z,21.22
2022-07-26T11:22:37.560Z,21.22
2022-07-26T11:28:09.702Z,21.25
2022-07-26T11:33:44.367Z,21.29
2022-07-26T11:38:56.544Z,21.26
2022-07-26T11:44:18.630Z,21.27
2022-07-26T11:49:59.871Z,21.24
2022-07-26T11:55:32.129Z,21.15
2022-07-26T12:00:40.139Z,21.05
2022-07-26T12:06:05.994Z,21.01
2022-07-26T12:11:16.355Z,20.97
2022-07-26T12:16:49.430Z,20.93
2022-07-26T12:21:59.423Z,20.92
2022-07-26T12:27:48.125Z,20.90
2022-07-26T12:33:02.679Z,20.86
2022-07-26T12:38:11.812Z,20.82
2022-07-26T12:43:49.828Z,20.86
2022-07-26T12:49:00.166Z,20.90
2022-07-26T12:54:37.406Z,20.88
2022-07-26T12:59:46.744Z,20.87
2022-07-26T13:05:00.671Z,20.84
2022-07-26T13:10:35.085Z,20.81
2022-07-26T13:15:51.489Z,20.80
2022-07-26T13:21:00.109Z,20.74
2022-07-26T13:26:31.657Z,20.71
2022-07-26T13:32:05.481Z,20.74
2022-07-26T13:37:16.568Z,20.71
2022-07-26T13:42:51.830Z,20.70
2022-07-26T13:48:00.596Z,20.69
2022-07-26T13:53:32.968Z,20.70
2022-07-26T13:59:04.650Z,20.65
2022-07-26T14:04:15.899Z,20.63
2022-07-26T14:09:23.656Z,20.59
2022-07-26T14:15:00.334Z,20.55
2022-07-26T14:20:10.512Z,20.47
2022-07-26T14:25:22.880Z,20.46
2022-07-26T14:30:36.023Z,20.38
2022-07-26T14:35:50.158Z,20.39
2022-07-26T14:41:21.435Z,20.34
2022-07-26T14:46:52.640Z,20.31
2022-07-26T14:52:25.423Z,20.25
2022-07-26T14:57:57.222Z,20.23
2022-07-26T15:03:07.188Z,20.24
2022-07-26T15:08:15.916Z,20.25
2022-07-26T15:13:24.664Z,20.25
2022-07-26T15:18:31.196Z,20.20
2022-07-26T15:23:42.491Z,20.16
2022-07-26T15:29:14.735Z,20.17
2022-07-26T15:34:46.837Z,20.13
2022-07-26T15:40:21.487Z,20.10
2022-07-26T15:45:55.500Z,20.12
2022-07-26T15:51:03.572Z,20.10
2022-07-26T15:56:14.001Z,20.12
2022-07-26T16:01:21.083Z,20.12
2022-07-26T16:06:52.760Z,20.09
2022-07-26T16:12:26.068Z,20.10
2022-07-26T16:18:01.732Z,20.04
2022-07-26T16:23:36.008Z,20.04
2022-07-26T16:28:44.240Z,20.02
2022-07-26T16:33:51.307Z,19.98
2022-07-26T16:39:00.435Z,19.96
2022-07-26T16:44:33.365Z,19.94
2022-07-26T16:49:46.685Z,19.91
2022-07-26T16:54:53.520Z,19.89
2022-07-26T17:00:04.896Z,19.87
2022-07-26T17:05:36.874Z,19.88
2022-07-26T17:11:09.096Z,19.87
2022-07-26T17:16:24.432Z,19.85
2022-07-26T17:21:32.353Z,19.83
2022-07-26T17:27:07.246Z,19.82
2022-07-26T17:33:04.977Z,19.81
2022-07-26T17:38:16.588Z,19.80
2022-07-26T17:43:49.304Z,19.73
2022-07-26T17:48:57.599Z,19.73
2022-07-26T17:54:08.307Z,19.68
2022-07-26T17:59:39.867Z,19.62
2022-07-26T18:05:13.493Z,19.65
2022-07-26T18:10:50.511Z,19.65
2022-07-26T18:16:02.874Z,19.62
2022-07-26T18:21:43.308Z,19.59
2022-07-26T18:27:15.168Z,19.58
2022-07-26T18:32:46.851Z,19.57
2022-07-26T18:37:56.007Z,19.55
2022-07-26T18:43:03.316Z,19.52
2022-07-26T18:48:10.707Z,19.49
2022-07-26T18:53:47.301Z,19.47
2022-07-26T18:59:19.196Z,19.43
2022-07-26T19:04:50.910Z,19.34
2022-07-26T19:09:59.830Z,19.30
2022-07-26T19:15:09.172Z,19.29
2022-07-26T19:20:16.666Z,19.26
2022-07-26T19:25:29.916Z,19.12
2022-07-26T19:30:38.856Z,19.06
2022-07-26T19:36:11.278Z,19.05
2022-07-26T19:41:24.373Z,19.05
2022-07-26T19:46:31.117Z,19.03
2022-07-26T19:51:38.460Z,18.95
2022-07-26T19:57:12.288Z,18.90
2022-07-26T20:02:19.817Z,18.86
2022-07-26T20:07:54.234Z,18.83
2022-07-26T20:13:02.994Z,18.79
2022-07-26T20:18:10.503Z,18.70
2022-07-26T20:23:21.150Z,18.63
2022-07-26T20:28:29.825Z,18.64
2022-07-26T20:33:37.624Z,18.49
2022-07-26T20:39:09.834Z,18.44
2022-07-26T20:44:20.445Z,18.40
2022-07-26T20:49:30.425Z,18.20
2022-07-26T20:54:37.676Z,18.18
2022-07-26T21:00:12.682Z,18.12
2022-07-26T21:05:20.128Z,18.14
2022-07-26T21:10:51.388Z,18.20
2022-07-26T21:16:00.189Z,18.16
2022-07-26T21:21:08.222Z,18.12
2022-07-26T21:26:40.542Z,18.11
2022-07-26T21:32:13.884Z,18.05
2022-07-26T21:38:09.990Z,18.08
2022-07-26T21:43:17.271Z,18.01
2022-07-26T21:48:29.938Z,17.99
2022-07-26T21:54:02.753Z,18.02
2022-07-26T21:59:34.635Z,17.95
2022-07-26T22:04:45.052Z,17.90
2022-07-26T22:09:55.766Z,17.89
2022-07-26T22:15:02.668Z,17.88
2022-07-26T22:20:13.844Z,17.82
2022-07-26T22:25:21.138Z,17.85
2022-07-26T22:30:52.787Z,17.72
2022-07-26T22:36:27.251Z,17.77
2022-07-26T22:41:46.166Z,17.65
2022-07-26T22:47:01.117Z,17.76
2022-07-26T22:52:34.223Z,17.74
2022-07-26T22:58:10.178Z,17.76
2022-07-26T23:03:22.450Z,17.36
2022-07-26T23:08:59.412Z,17.18
2022-07-26T23:14:31.705Z,17.36
2022-07-26T23:19:38.611Z,17.37
2022-07-26T23:25:12.282Z,17.52
2022-07-26T23:30:49.701Z,17.56
2022-07-26T23:36:21.417Z,17.59
2022-07-26T23:41:36.288Z,17.64
2022-07-26T23:46:43.350Z,17.68
2022-07-26T23:51:55.693Z,17.65
2022-07-26T23:57:29.597Z,17.69
